This is the latest recevied weather packets stored in our database for station/object ED3YAB-7. If no packets are shown the sender has not sent any weather packets the latest 10 day(s).
| Time | Temp. | Humidity | Pressure | Rain* | Wind** | Luminosity | Snow |
|---|---|---|---|---|---|---|---|
| 1777552952 | 29.44° C | 26% | 1021.1 hPa | - | - | - | - |
| 1777551759 | 27.78° C | 28% | 1021.1 hPa | - | - | - | - |
| 1777551752 | 27.78° C | 28% | 1021.1 hPa | - | - | - | - |
| 1777550552 | 26.11° C | 30% | 1021.2 hPa | - | - | - | - |
| 1777549352 | 25° C | 33% | 1021.3 hPa | - | - | - | - |
| 1777548151 | 25° C | 34% | 1021.4 hPa | - | - | - | - |
| 1777546951 | 24.44° C | 34% | 1021.5 hPa | - | - | - | - |
| 1777545751 | 23.33° C | 32% | 1021.5 hPa | - | - | - | - |
| 1777544558 | 23.89° C | 33% | 1021.6 hPa | - | - | - | - |
| 1777544551 | 23.89° C | 33% | 1021.6 hPa | - | - | - | - |
| 1777543351 | 23.89° C | 34% | 1021.6 hPa | - | - | - | - |
| 1777542157 | 22.78° C | 37% | 1021.5 hPa | - | - | - | - |
| 1777540957 | 20.56° C | 39% | 1021.4 hPa | - | - | - | - |
| 1777539757 | 21.11° C | 38% | 1021.2 hPa | - | - | - | - |
| 1777538564 | 21.11° C | 40% | 1020.9 hPa | - | - | - | - |
| 1777538557 | 21.11° C | 40% | 1020.9 hPa | - | - | - | - |
| 1777537357 | 20.56° C | 41% | 1020.9 hPa | - | - | - | - |
| 1777536156 | 20° C | 43% | 1020.9 hPa | - | - | - | - |
| 1777534964 | 18.89° C | 46% | 1020.7 hPa | - | - | - | - |
| 1777534956 | 18.89° C | 46% | 1020.7 hPa | - | - | - | - |
| 1777533756 | 17.22° C | 50% | 1020.5 hPa | - | - | - | - |
| 1777532556 | 16.11° C | 56% | 1020.6 hPa | - | - | - | - |
| 1777531363 | 15.56° C | 56% | 1020.5 hPa | - | - | - | - |
| 1777531356 | 15.56° C | 56% | 1020.5 hPa | - | - | - | - |
| 1777530156 | 15.56° C | 56% | 1020.4 hPa | - | - | - | - |
* Rain since midnight (hover to see other rain measurements)
** Current wind speed in m/s (hover to see current wind gust speed)